createdAt,value
2019-05-29T00:02:06.642Z,53.24
2019-05-29T00:04:39.281Z,53.22
2019-05-29T00:07:12.226Z,53.27
2019-05-29T00:09:44.747Z,53.27
2019-05-29T00:12:20.089Z,53.29
2019-05-29T00:14:51.227Z,53.30
2019-05-29T00:17:23.524Z,53.31
2019-05-29T00:19:55.810Z,53.34
2019-05-29T00:22:28.065Z,53.37
2019-05-29T00:25:00.384Z,53.39
2019-05-29T00:27:32.928Z,53.41
2019-05-29T00:30:06.797Z,53.42
2019-05-29T00:32:39.426Z,53.42
2019-05-29T00:35:12.312Z,53.46
2019-05-29T00:37:44.962Z,53.50
2019-05-29T00:40:17.628Z,53.51
2019-05-29T00:42:49.848Z,53.50
2019-05-29T00:45:22.422Z,53.53
2019-05-29T00:47:54.721Z,53.58
2019-05-29T00:50:30.520Z,53.62
2019-05-29T00:53:02.843Z,53.67
2019-05-29T00:55:35.384Z,53.64
2019-05-29T00:58:08.708Z,53.67
2019-05-29T01:00:41.314Z,53.69
2019-05-29T01:03:15.840Z,53.73
2019-05-29T01:05:48.276Z,53.74
2019-05-29T01:08:20.578Z,53.77
2019-05-29T01:10:52.787Z,53.79
2019-05-29T01:13:25.286Z,53.85
2019-05-29T01:15:57.505Z,53.87
2019-05-29T01:18:31.807Z,53.92
2019-05-29T01:21:05.383Z,53.94
2019-05-29T01:23:37.895Z,53.95
2019-05-29T01:26:14.491Z,53.96
2019-05-29T01:28:47.163Z,53.96
2019-05-29T01:31:24.730Z,53.98
2019-05-29T01:33:59.598Z,54.05
2019-05-29T01:36:31.810Z,54.11
2019-05-29T01:39:04.234Z,54.18
2019-05-29T01:41:36.731Z,54.19
2019-05-29T01:44:09.106Z,54.22
2019-05-29T01:46:41.547Z,54.21
2019-05-29T01:49:13.952Z,54.18
2019-05-29T01:51:46.404Z,54.19
2019-05-29T01:54:19.720Z,54.26
2019-05-29T01:56:52.401Z,54.29
2019-05-29T01:59:24.727Z,54.34
2019-05-29T02:01:56.905Z,54.35
2019-05-29T02:04:29.180Z,54.34
2019-05-29T02:07:01.409Z,54.35
2019-05-29T02:09:33.746Z,54.39
2019-05-29T02:12:06.230Z,54.40
2019-05-29T02:14:38.704Z,54.40
2019-05-29T02:17:11.107Z,54.42
2019-05-29T02:19:43.450Z,54.43
2019-05-29T02:22:16.898Z,54.45
2019-05-29T02:24:49.387Z,54.48
2019-05-29T02:27:21.704Z,54.46
2019-05-29T02:29:54.139Z,54.44
2019-05-29T02:32:27.877Z,54.46
2019-05-29T02:35:00.193Z,54.49
2019-05-29T02:37:32.562Z,54.50
2019-05-29T02:40:05.347Z,54.52
2019-05-29T02:42:37.658Z,54.53
2019-05-29T02:45:10.899Z,54.52
2019-05-29T02:47:43.287Z,54.58
2019-05-29T02:50:15.578Z,54.57
2019-05-29T02:52:47.817Z,54.57
2019-05-29T02:55:20.772Z,54.60
2019-05-29T02:57:53.430Z,54.65
2019-05-29T03:00:55.066Z,54.67
2019-05-29T03:03:31.165Z,54.70
2019-05-29T03:06:02.105Z,54.74
2019-05-29T03:08:34.675Z,54.73
2019-05-29T03:11:07.457Z,54.71
2019-05-29T03:13:39.946Z,54.71
2019-05-29T03:16:13.172Z,54.72
2019-05-29T03:18:45.662Z,54.76
2019-05-29T03:21:18.246Z,54.76
2019-05-29T03:23:50.755Z,54.76
2019-05-29T03:26:26.441Z,54.78
2019-05-29T03:28:57.140Z,54.82
2019-05-29T03:31:36.953Z,54.80
2019-05-29T03:34:03.744Z,54.81
2019-05-29T03:36:43.902Z,54.80
2019-05-29T03:41:49.545Z,54.89
2019-05-29T03:44:22.142Z,54.92
2019-05-29T03:46:54.624Z,54.92
2019-05-29T03:49:29.052Z,54.90
2019-05-29T03:52:01.545Z,54.92
2019-05-29T03:54:35.475Z,54.92
2019-05-29T03:57:07.933Z,54.93
2019-05-29T03:59:40.170Z,54.94
2019-05-29T04:02:12.551Z,54.96
2019-05-29T04:04:44.838Z,55.00
2019-05-29T04:07:17.196Z,55.07
2019-05-29T04:09:49.534Z,55.08
2019-05-29T04:12:21.872Z,55.10
2019-05-29T04:14:54.698Z,55.06
2019-05-29T04:17:31.834Z,55.07
2019-05-29T04:20:04.199Z,55.08
2019-05-29T04:22:46.004Z,55.08
2019-05-29T04:25:18.292Z,55.07
2019-05-29T04:27:53.221Z,55.08
2019-05-29T04:30:28.150Z,55.06
2019-05-29T04:33:06.201Z,55.08
2019-05-29T04:35:40.031Z,55.06
2019-05-29T04:38:19.200Z,55.06
2019-05-29T04:40:53.088Z,55.02
2019-05-29T04:43:25.296Z,55.02
2019-05-29T04:45:57.845Z,54.99
2019-05-29T04:48:31.527Z,54.95
2019-05-29T04:51:04.598Z,54.95
2019-05-29T04:53:37.756Z,54.97
2019-05-29T04:56:10.514Z,54.96
2019-05-29T04:58:43.122Z,54.92
2019-05-29T05:01:16.570Z,54.88
2019-05-29T05:03:49.195Z,54.80
2019-05-29T05:06:21.407Z,54.76
2019-05-29T05:08:53.752Z,54.75
2019-05-29T05:11:26.518Z,54.72
2019-05-29T05:14:01.654Z,54.64
2019-05-29T05:16:33.731Z,54.45
2019-05-29T05:19:05.946Z,54.17
2019-05-29T05:21:38.421Z,53.82
2019-05-29T05:24:10.820Z,53.38
2019-05-29T05:26:43.176Z,52.99
2019-05-29T05:29:15.601Z,52.61
2019-05-29T05:31:48.166Z,52.25
2019-05-29T05:34:20.662Z,51.96
2019-05-29T05:36:52.949Z,51.70
2019-05-29T05:39:25.286Z,51.46
2019-05-29T05:41:57.545Z,51.22
2019-05-29T05:44:30.772Z,51.03
2019-05-29T05:47:03.475Z,50.85
2019-05-29T05:49:37.297Z,50.64
2019-05-29T05:52:09.858Z,50.43
2019-05-29T05:54:42.275Z,50.19
2019-05-29T05:57:14.602Z,49.95
2019-05-29T05:59:46.882Z,49.71
2019-05-29T06:02:19.429Z,49.46
2019-05-29T06:04:51.872Z,49.31
2019-05-29T06:07:24.195Z,49.14
2019-05-29T06:09:56.794Z,49.01
2019-05-29T06:12:29.190Z,48.86
2019-05-29T06:15:01.716Z,48.69
2019-05-29T06:17:34.428Z,48.47
2019-05-29T06:20:07.296Z,48.31
2019-05-29T06:22:41.033Z,48.13
2019-05-29T06:25:14.126Z,48.01
2019-05-29T06:27:46.571Z,47.89
2019-05-29T06:30:20.486Z,47.79
2019-05-29T06:32:53.051Z,47.70
2019-05-29T06:35:25.702Z,47.61
2019-05-29T06:37:58.154Z,47.65
2019-05-29T06:40:40.285Z,47.53
2019-05-29T06:43:31.765Z,47.55
2019-05-29T06:46:04.224Z,47.56
2019-05-29T06:48:46.692Z,47.45
2019-05-29T06:51:11.326Z,47.63
2019-05-29T06:53:44.160Z,47.53
2019-05-29T06:56:17.241Z,47.56
2019-05-29T06:58:49.955Z,47.61
2019-05-29T07:01:22.494Z,47.66
2019-05-29T07:04:10.603Z,47.70
2019-05-29T07:06:29.088Z,47.63
2019-05-29T07:09:01.475Z,47.64
2019-05-29T07:11:34.259Z,47.63
2019-05-29T07:14:06.667Z,47.51
2019-05-29T07:16:45.199Z,47.33
2019-05-29T07:19:47.199Z,47.33
2019-05-29T07:21:47.266Z,47.31
2019-05-29T07:24:19.662Z,47.21
2019-05-29T07:26:52.264Z,47.26
2019-05-29T07:29:24.701Z,47.29
2019-05-29T07:31:57.507Z,47.40
2019-05-29T07:34:29.775Z,47.40
2019-05-29T07:37:09.482Z,47.32
2019-05-29T07:39:43.960Z,47.18
2019-05-29T07:42:16.662Z,47.33
2019-05-29T07:44:48.981Z,47.32
2019-05-29T07:47:21.393Z,47.33
2019-05-29T07:49:53.787Z,47.34
2019-05-29T07:52:26.193Z,47.36
2019-05-29T07:54:58.553Z,47.41
2019-05-29T07:57:31.025Z,47.33
2019-05-29T08:00:03.345Z,47.38
2019-05-29T08:02:35.797Z,47.29
2019-05-29T08:05:09.478Z,47.05
2019-05-29T08:07:43.401Z,46.99
2019-05-29T08:10:16.337Z,46.96
2019-05-29T08:12:54.309Z,46.89
2019-05-29T08:15:22.608Z,46.89
2019-05-29T08:17:54.985Z,46.69
2019-05-29T08:20:27.241Z,46.47
2019-05-29T08:22:59.679Z,46.19
2019-05-29T08:25:33.447Z,45.98
2019-05-29T08:28:07.294Z,45.81
2019-05-29T08:30:41.027Z,45.69
2019-05-29T08:33:13.572Z,45.51
2019-05-29T08:35:47.187Z,45.38
2019-05-29T08:38:20.422Z,45.54
2019-05-29T08:40:52.895Z,45.54
2019-05-29T08:43:25.080Z,45.67
2019-05-29T08:45:59.464Z,45.82
2019-05-29T08:48:31.758Z,45.85
2019-05-29T08:51:04.276Z,45.99
2019-05-29T08:53:36.556Z,46.00
2019-05-29T08:56:08.877Z,46.04
2019-05-29T08:58:42.909Z,46.11
2019-05-29T09:01:15.385Z,46.22
2019-05-29T09:03:48.882Z,46.30
2019-05-29T09:06:21.421Z,46.22
2019-05-29T09:08:54.994Z,46.22
2019-05-29T09:11:27.770Z,46.26
2019-05-29T09:13:59.937Z,46.23
2019-05-29T09:16:32.269Z,46.29
2019-05-29T09:19:04.540Z,46.30
2019-05-29T09:21:36.975Z,46.26
2019-05-29T09:24:09.269Z,46.31
2019-05-29T09:26:41.819Z,46.24
2019-05-29T09:29:16.702Z,46.32
2019-05-29T09:31:48.159Z,46.34
2019-05-29T09:34:20.591Z,46.18
2019-05-29T09:36:55.691Z,46.19
2019-05-29T09:39:27.155Z,46.27
2019-05-29T09:41:59.941Z,46.36
2019-05-29T09:44:38.970Z,46.41
2019-05-29T09:47:07.035Z,46.51
2019-05-29T09:49:39.347Z,46.47
2019-05-29T09:52:11.585Z,46.40
2019-05-29T09:54:44.000Z,46.32
2019-05-29T09:57:16.300Z,46.40
2019-05-29T09:59:48.669Z,46.51
2019-05-29T10:02:21.204Z,46.64
2019-05-29T10:04:55.913Z,46.71
2019-05-29T10:07:28.599Z,46.71
2019-05-29T10:10:03.082Z,46.74
2019-05-29T10:12:35.486Z,46.75
2019-05-29T10:15:08.921Z,46.71
2019-05-29T10:17:41.207Z,46.67
2019-05-29T10:20:15.859Z,46.62
2019-05-29T10:22:49.395Z,46.46
2019-05-29T10:25:22.590Z,46.34
2019-05-29T10:27:54.967Z,46.26
2019-05-29T10:30:28.692Z,46.21
2019-05-29T10:33:00.924Z,46.14
2019-05-29T10:35:33.303Z,46.04
2019-05-29T10:38:06.014Z,46.11
2019-05-29T10:40:38.668Z,46.19
2019-05-29T10:43:11.395Z,46.22
2019-05-29T10:45:43.667Z,46.31
2019-05-29T10:48:18.446Z,46.36
2019-05-29T10:50:52.560Z,46.45
2019-05-29T10:53:25.325Z,46.50
2019-05-29T10:55:58.148Z,46.58
2019-05-29T10:58:45.772Z,46.50
2019-05-29T11:01:05.364Z,46.49
2019-05-29T11:03:37.949Z,46.47
2019-05-29T11:06:10.329Z,46.45
2019-05-29T11:08:42.765Z,46.44
2019-05-29T11:11:15.057Z,46.48
2019-05-29T11:13:48.653Z,46.52
2019-05-29T11:16:21.273Z,46.53
2019-05-29T11:18:55.212Z,46.54
2019-05-29T11:21:27.689Z,46.57
2019-05-29T11:24:00.056Z,46.57
2019-05-29T11:26:32.411Z,46.52
2019-05-29T11:29:04.699Z,46.56
2019-05-29T11:31:36.982Z,46.63
2019-05-29T11:34:09.289Z,46.60
2019-05-29T11:36:42.048Z,46.60
2019-05-29T11:39:14.566Z,46.60
2019-05-29T11:41:46.861Z,46.59
2019-05-29T11:44:19.115Z,46.58
2019-05-29T11:46:52.140Z,46.70
2019-05-29T11:49:24.851Z,46.78
2019-05-29T11:52:18.829Z,46.77
2019-05-29T11:54:31.115Z,46.76
2019-05-29T11:57:03.431Z,46.73
2019-05-29T11:59:36.106Z,46.78
2019-05-29T12:02:08.514Z,46.72
2019-05-29T12:04:40.972Z,46.66
2019-05-29T12:07:13.247Z,46.63
2019-05-29T12:09:45.656Z,46.56
2019-05-29T12:12:18.095Z,46.62
2019-05-29T12:15:00.254Z,46.64
2019-05-29T12:17:24.774Z,46.65
2019-05-29T12:20:02.350Z,46.74
2019-05-29T12:22:35.782Z,46.80
2019-05-29T12:25:08.687Z,46.89
2019-05-29T12:27:41.287Z,46.92
2019-05-29T12:30:14.737Z,46.94
2019-05-29T12:32:47.851Z,46.93
2019-05-29T12:35:20.896Z,46.92
2019-05-29T12:37:53.297Z,47.07
2019-05-29T12:40:25.962Z,47.15
2019-05-29T12:42:59.938Z,47.29
2019-05-29T12:45:32.257Z,47.33
2019-05-29T12:48:11.693Z,47.30
2019-05-29T12:50:38.952Z,47.32
2019-05-29T12:53:28.318Z,47.32
2019-05-29T12:55:46.628Z,47.32
2019-05-29T12:58:19.109Z,47.31
2019-05-29T13:00:51.710Z,47.36
2019-05-29T13:03:24.088Z,47.39
2019-05-29T13:05:56.734Z,47.39
2019-05-29T13:08:28.988Z,47.46
2019-05-29T13:11:02.668Z,47.50
2019-05-29T13:13:35.100Z,47.51
2019-05-29T13:16:07.558Z,47.47
2019-05-29T13:18:39.813Z,47.47
2019-05-29T13:21:12.353Z,47.48
2019-05-29T13:23:45.714Z,47.56
2019-05-29T13:26:18.338Z,47.61
2019-05-29T13:28:50.766Z,47.75
2019-05-29T13:31:23.089Z,47.83
2019-05-29T13:33:55.630Z,47.91
2019-05-29T13:36:27.853Z,47.99
2019-05-29T13:39:00.220Z,48.03
2019-05-29T13:41:32.854Z,48.08
2019-05-29T13:44:06.790Z,48.15
2019-05-29T13:46:39.350Z,48.08
2019-05-29T13:49:11.797Z,48.18
2019-05-29T13:51:44.138Z,48.19
2019-05-29T13:54:18.132Z,48.27
2019-05-29T13:56:50.739Z,48.34
2019-05-29T13:59:24.588Z,48.37
2019-05-29T14:01:58.272Z,48.35
2019-05-29T14:04:30.894Z,48.37
2019-05-29T14:07:04.917Z,48.32
2019-05-29T14:09:37.724Z,48.36
2019-05-29T14:12:10.089Z,48.43
2019-05-29T14:14:43.273Z,48.49
2019-05-29T14:17:15.599Z,48.53
2019-05-29T14:19:48.358Z,48.56
2019-05-29T14:22:20.974Z,48.65
2019-05-29T14:24:53.369Z,48.64
2019-05-29T14:27:25.772Z,48.63
2019-05-29T14:29:58.169Z,48.68
2019-05-29T14:32:30.464Z,48.72
2019-05-29T14:35:05.173Z,48.73
2019-05-29T14:37:36.765Z,48.80
2019-05-29T14:40:09.907Z,48.82
2019-05-29T14:42:42.643Z,48.83
2019-05-29T14:45:16.654Z,48.82
2019-05-29T14:47:49.031Z,48.91
2019-05-29T14:50:21.439Z,48.91
2019-05-29T14:52:53.859Z,48.82
2019-05-29T14:55:26.062Z,48.78
2019-05-29T14:57:58.580Z,48.76
2019-05-29T15:00:31.022Z,48.75
2019-05-29T15:03:03.426Z,48.72
2019-05-29T15:05:35.923Z,48.67
2019-05-29T15:08:09.607Z,48.67
2019-05-29T15:10:42.367Z,48.65
2019-05-29T15:13:15.296Z,48.60
2019-05-29T15:15:48.028Z,48.49
2019-05-29T15:18:20.376Z,48.43
2019-05-29T15:20:52.812Z,48.32
2019-05-29T15:23:25.140Z,48.31
2019-05-29T15:25:57.720Z,48.25
2019-05-29T15:28:30.017Z,48.18
2019-05-29T15:31:02.460Z,48.15
2019-05-29T15:33:34.634Z,48.10
2019-05-29T15:36:07.029Z,48.03
2019-05-29T15:38:39.392Z,47.97
2019-05-29T15:41:14.827Z,47.95
2019-05-29T15:43:49.418Z,47.93
2019-05-29T15:46:22.845Z,47.90
2019-05-29T15:48:55.463Z,47.89
2019-05-29T15:51:28.110Z,47.89
2019-05-29T15:54:01.286Z,47.89
2019-05-29T15:56:34.061Z,47.88
2019-05-29T15:59:07.958Z,47.89
2019-05-29T16:01:41.875Z,47.89
2019-05-29T16:04:15.763Z,47.92
2019-05-29T16:06:48.151Z,47.92
2019-05-29T16:09:20.613Z,47.96
2019-05-29T16:11:53.157Z,47.99
2019-05-29T16:14:25.530Z,47.99
2019-05-29T16:16:57.953Z,47.98
2019-05-29T16:19:30.151Z,47.97
2019-05-29T16:22:02.635Z,47.96
2019-05-29T16:24:35.130Z,47.94
2019-05-29T16:27:10.560Z,47.97
2019-05-29T16:29:42.916Z,47.96
2019-05-29T16:32:16.069Z,47.96
2019-05-29T16:34:48.595Z,47.95
2019-05-29T16:37:21.953Z,47.96
2019-05-29T16:39:54.632Z,47.94
2019-05-29T16:42:27.499Z,47.92
2019-05-29T16:44:59.911Z,47.91
2019-05-29T16:47:32.846Z,47.91
2019-05-29T16:50:05.883Z,47.88
2019-05-29T16:52:38.483Z,47.86
2019-05-29T16:55:11.083Z,47.88
2019-05-29T16:57:43.888Z,47.87
2019-05-29T17:00:17.733Z,47.90
2019-05-29T17:02:50.737Z,47.91
2019-05-29T17:05:24.256Z,47.87
2019-05-29T17:07:57.281Z,47.87
2019-05-29T17:10:39.069Z,47.85
2019-05-29T17:13:11.765Z,47.83
2019-05-29T17:15:44.198Z,47.84
2019-05-29T17:18:18.867Z,47.82
2019-05-29T17:20:51.184Z,47.80
2019-05-29T17:23:25.219Z,47.78
2019-05-29T17:26:10.143Z,47.76
2019-05-29T17:28:31.931Z,47.76
2019-05-29T17:31:04.536Z,47.76
2019-05-29T17:33:37.163Z,47.74
2019-05-29T17:36:09.538Z,47.74
2019-05-29T17:38:42.571Z,47.77
2019-05-29T17:41:15.331Z,47.81
2019-05-29T17:43:48.187Z,47.83
2019-05-29T17:46:21.698Z,47.85
2019-05-29T17:48:54.282Z,47.89
2019-05-29T17:51:26.541Z,47.95
2019-05-29T17:53:59.714Z,47.99
2019-05-29T17:56:36.580Z,48.06
2019-05-29T17:59:07.463Z,48.15
2019-05-29T18:01:40.075Z,48.24
2019-05-29T18:04:12.859Z,48.37
2019-05-29T18:06:45.098Z,48.63
2019-05-29T18:09:18.979Z,48.72
2019-05-29T18:11:51.668Z,48.92
2019-05-29T18:14:25.320Z,49.08
2019-05-29T18:16:57.675Z,49.29
2019-05-29T18:19:30.168Z,49.34
2019-05-29T18:22:02.956Z,49.46
2019-05-29T18:24:35.446Z,49.52
2019-05-29T18:27:08.234Z,49.62
2019-05-29T18:29:40.742Z,49.58
2019-05-29T18:32:13.218Z,49.52
2019-05-29T18:34:45.624Z,49.51
2019-05-29T18:37:18.023Z,49.51
2019-05-29T18:39:50.249Z,49.44
2019-05-29T18:42:22.688Z,49.42
2019-05-29T18:44:54.940Z,49.38
2019-05-29T18:47:27.495Z,49.34
2019-05-29T18:50:00.134Z,49.32
2019-05-29T18:52:32.941Z,49.29
2019-05-29T18:55:05.453Z,49.28
2019-05-29T18:57:38.164Z,49.26
2019-05-29T19:00:11.888Z,49.25
2019-05-29T19:02:44.500Z,49.19
2019-05-29T19:05:17.788Z,49.17
2019-05-29T19:07:50.272Z,49.16
2019-05-29T19:10:23.672Z,49.16
2019-05-29T19:12:56.503Z,49.14
2019-05-29T19:15:30.079Z,49.17
2019-05-29T19:18:03.995Z,49.18
2019-05-29T19:20:36.347Z,49.18
2019-05-29T19:23:08.963Z,49.18
2019-05-29T19:25:41.394Z,49.20
2019-05-29T19:28:14.283Z,49.20
2019-05-29T19:30:46.662Z,49.22
2019-05-29T19:33:19.328Z,49.21
2019-05-29T19:35:51.896Z,49.20
2019-05-29T19:38:25.654Z,49.20
2019-05-29T19:40:57.948Z,49.15
2019-05-29T19:43:30.370Z,49.12
2019-05-29T19:46:02.736Z,49.09
2019-05-29T19:48:35.473Z,49.09
2019-05-29T19:51:08.188Z,49.05
2019-05-29T19:53:40.660Z,49.03
2019-05-29T19:56:13.884Z,49.05
2019-05-29T19:58:49.669Z,49.12
2019-05-29T20:01:30.488Z,49.14
2019-05-29T20:03:56.053Z,49.18
2019-05-29T20:06:28.859Z,49.19
2019-05-29T20:09:01.562Z,49.19
2019-05-29T20:11:33.975Z,49.15
2019-05-29T20:14:07.630Z,49.10
2019-05-29T20:16:40.130Z,49.06
2019-05-29T20:19:12.731Z,48.98
2019-05-29T20:21:45.072Z,48.93
2019-05-29T20:24:17.473Z,48.86
2019-05-29T20:26:49.796Z,48.80
2019-05-29T20:29:22.103Z,48.78
2019-05-29T20:31:54.769Z,48.74
2019-05-29T20:34:27.151Z,48.69
2019-05-29T20:36:59.818Z,48.69
2019-05-29T20:39:32.992Z,48.67
2019-05-29T20:42:06.224Z,48.69
2019-05-29T20:44:38.815Z,48.69
2019-05-29T20:47:11.443Z,48.67
2019-05-29T20:49:47.300Z,48.62
2019-05-29T20:54:58.559Z,48.55
2019-05-29T20:57:29.298Z,48.53
2019-05-29T21:00:01.842Z,48.48
2019-05-29T21:02:34.269Z,48.44
2019-05-29T21:05:07.741Z,48.40
2019-05-29T21:07:41.006Z,48.39
2019-05-29T21:10:14.477Z,48.37
2019-05-29T21:12:47.775Z,48.36
2019-05-29T21:15:20.844Z,48.34
2019-05-29T21:17:53.683Z,48.32
2019-05-29T21:20:29.093Z,48.31
2019-05-29T21:23:00.913Z,48.28
2019-05-29T21:25:34.589Z,48.26
2019-05-29T21:28:07.618Z,48.21
2019-05-29T21:30:41.363Z,48.21
2019-05-29T21:33:14.532Z,48.20
2019-05-29T21:35:47.442Z,48.20
2019-05-29T21:38:19.747Z,48.20
2019-05-29T21:40:52.372Z,48.20
2019-05-29T21:43:24.778Z,48.24
2019-05-29T21:45:57.456Z,48.25
2019-05-29T21:48:29.656Z,48.24
2019-05-29T21:51:02.932Z,48.24
2019-05-29T21:53:35.235Z,48.21
2019-05-29T21:56:12.221Z,48.23
2019-05-29T21:58:59.971Z,48.22
2019-05-29T22:01:19.916Z,48.25
2019-05-29T22:03:52.320Z,48.23
2019-05-29T22:06:25.097Z,48.25
2019-05-29T22:08:57.859Z,48.24
2019-05-29T22:11:30.137Z,48.24
2019-05-29T22:14:02.669Z,48.30
2019-05-29T22:16:34.943Z,48.33
2019-05-29T22:19:07.773Z,48.41
2019-05-29T22:21:40.331Z,48.46
2019-05-29T22:24:12.901Z,48.55
2019-05-29T22:26:45.277Z,48.57
2019-05-29T22:29:18.590Z,48.61
2019-05-29T22:31:51.309Z,48.66
2019-05-29T22:34:23.894Z,48.72
2019-05-29T22:36:57.482Z,48.77
2019-05-29T22:39:30.445Z,48.86
2019-05-29T22:42:03.126Z,48.94
2019-05-29T22:44:36.098Z,49.06
2019-05-29T22:47:08.429Z,49.16
2019-05-29T22:49:40.879Z,49.22
2019-05-29T22:52:13.170Z,49.27
2019-05-29T22:54:45.613Z,49.30
2019-05-29T22:57:18.280Z,49.34
2019-05-29T22:59:51.841Z,49.39
2019-05-29T23:02:24.207Z,49.46
2019-05-29T23:04:58.473Z,49.48
2019-05-29T23:07:31.493Z,49.54
2019-05-29T23:10:04.247Z,49.55
2019-05-29T23:12:36.495Z,49.59
2019-05-29T23:15:10.392Z,49.64
2019-05-29T23:17:43.035Z,49.65
2019-05-29T23:20:16.538Z,49.67
2019-05-29T23:22:48.881Z,49.75
2019-05-29T23:25:21.403Z,49.75
2019-05-29T23:27:54.858Z,49.73
2019-05-29T23:30:30.271Z,49.77
2019-05-29T23:33:01.470Z,49.79
2019-05-29T23:35:33.815Z,49.84
2019-05-29T23:38:06.271Z,49.87
2019-05-29T23:40:38.546Z,49.92
2019-05-29T23:43:11.158Z,49.94
2019-05-29T23:45:43.679Z,50.03
2019-05-29T23:48:19.951Z,50.05
2019-05-29T23:50:53.348Z,50.10
2019-05-29T23:53:25.935Z,50.19
2019-05-29T23:55:59.720Z,50.20
2019-05-29T23:58:32.357Z,50.23
